createdAt,value
2023-04-30T00:00:38.161Z,100.00
2023-04-30T00:03:06.409Z,100.00
2023-04-30T00:05:34.744Z,100.00
2023-04-30T00:08:02.851Z,100.00
2023-04-30T00:10:31.131Z,100.00
2023-04-30T00:12:59.833Z,100.00
2023-04-30T00:15:29.410Z,100.00
2023-04-30T00:17:57.641Z,100.00
2023-04-30T00:20:25.932Z,100.00
2023-04-30T00:22:54.139Z,100.00
2023-04-30T00:25:24.659Z,100.00
2023-04-30T00:27:52.832Z,100.00
2023-04-30T00:30:20.999Z,100.00
2023-04-30T00:32:50.565Z,100.00
2023-04-30T00:35:18.856Z,100.00
2023-04-30T00:37:47.812Z,100.00
2023-04-30T00:40:16.802Z,100.00
2023-04-30T00:42:45.024Z,100.00
2023-04-30T00:45:13.296Z,100.00
2023-04-30T00:47:42.249Z,100.00
2023-04-30T00:50:16.028Z,100.00
2023-04-30T00:52:44.748Z,100.00
2023-04-30T00:55:13.731Z,100.00
2023-04-30T00:57:42.175Z,100.00
2023-04-30T01:00:11.754Z,100.00
2023-04-30T01:02:40.032Z,100.00
2023-04-30T01:05:09.306Z,100.00
2023-04-30T01:07:44.878Z,100.00
2023-04-30T01:10:14.068Z,100.00
2023-04-30T01:12:49.299Z,100.00
2023-04-30T01:15:34.710Z,100.00
2023-04-30T01:18:09.351Z,100.00
2023-04-30T01:20:45.168Z,100.00
2023-04-30T01:23:28.888Z,100.00
2023-04-30T01:26:12.292Z,100.00
2023-04-30T01:28:45.037Z,100.00
2023-04-30T01:31:14.999Z,100.00
2023-04-30T01:33:43.463Z,100.00
2023-04-30T01:36:36.928Z,100.00
2023-04-30T01:39:21.271Z,100.00
2023-04-30T01:41:59.267Z,100.00
2023-04-30T01:44:55.464Z,100.00
2023-04-30T01:47:35.187Z,100.00
2023-04-30T01:50:25.644Z,100.00
2023-04-30T01:52:55.115Z,100.00
2023-04-30T01:55:28.829Z,100.00
2023-04-30T01:57:59.758Z,100.00
2023-04-30T02:00:30.801Z,100.00
2023-04-30T02:02:59.521Z,100.00
2023-04-30T02:05:27.832Z,100.00
2023-04-30T02:07:56.492Z,100.00
2023-04-30T02:10:26.591Z,100.00
2023-04-30T02:12:55.246Z,100.00
2023-04-30T02:15:23.493Z,100.00
2023-04-30T02:17:53.205Z,100.00
2023-04-30T02:20:21.632Z,100.00
2023-04-30T02:22:49.815Z,100.00
2023-04-30T02:25:18.276Z,100.00
2023-04-30T02:27:46.409Z,100.00
2023-04-30T02:30:14.543Z,100.00
2023-04-30T02:32:42.869Z,100.00
2023-04-30T02:35:12.520Z,100.00
2023-04-30T02:37:40.664Z,100.00
2023-04-30T02:40:10.691Z,100.00
2023-04-30T02:42:38.872Z,100.00
2023-04-30T02:45:08.245Z,100.00
2023-04-30T02:47:36.576Z,100.00
2023-04-30T02:50:05.587Z,100.00
2023-04-30T02:52:35.192Z,100.00
2023-04-30T02:55:04.047Z,100.00
2023-04-30T02:57:32.215Z,100.00
2023-04-30T03:00:00.609Z,100.00
2023-04-30T03:02:28.822Z,100.00
2023-04-30T03:04:56.993Z,100.00
2023-04-30T03:07:25.192Z,100.00
2023-04-30T03:09:55.053Z,100.00
2023-04-30T03:12:23.417Z,100.00
2023-04-30T03:14:52.376Z,100.00
2023-04-30T03:17:20.597Z,100.00
2023-04-30T03:19:48.817Z,100.00
2023-04-30T03:22:19.536Z,100.00
2023-04-30T03:24:47.864Z,100.00
2023-04-30T03:27:18.088Z,100.00
2023-04-30T03:29:46.278Z,100.00
2023-04-30T03:32:14.407Z,100.00
2023-04-30T03:34:42.556Z,100.00
2023-04-30T03:37:10.742Z,100.00
2023-04-30T03:39:38.830Z,100.00
2023-04-30T03:42:06.928Z,100.00
2023-04-30T03:44:36.461Z,100.00
2023-04-30T03:47:04.601Z,100.00
2023-04-30T03:49:32.995Z,100.00
2023-04-30T03:52:01.224Z,100.00
2023-04-30T03:54:29.620Z,100.00
2023-04-30T03:56:58.043Z,100.00
2023-04-30T03:59:26.758Z,100.00
2023-04-30T04:01:56.364Z,100.00
2023-04-30T04:04:24.643Z,100.00
2023-04-30T04:06:52.821Z,100.00
2023-04-30T04:09:21.239Z,100.00
2023-04-30T04:11:49.454Z,100.00
2023-04-30T04:14:17.806Z,100.00
2023-04-30T04:16:46.822Z,100.00
2023-04-30T04:19:16.351Z,100.00
2023-04-30T04:21:44.532Z,100.00
2023-04-30T04:24:12.939Z,100.00
2023-04-30T04:26:41.528Z,100.00
2023-04-30T04:29:10.074Z,100.00
2023-04-30T04:31:38.790Z,100.00
2023-04-30T04:34:07.130Z,100.00
2023-04-30T04:36:36.750Z,100.00
2023-04-30T04:39:05.233Z,100.00
2023-04-30T04:41:35.247Z,100.00
2023-04-30T04:44:03.863Z,100.00
2023-04-30T04:46:33.213Z,100.00
2023-04-30T04:49:01.619Z,100.00
2023-04-30T04:51:29.793Z,100.00
2023-04-30T04:53:59.423Z,100.00
2023-04-30T04:56:27.598Z,100.00
2023-04-30T04:58:55.766Z,100.00
2023-04-30T05:01:23.937Z,100.00
2023-04-30T05:03:53.902Z,100.00
2023-04-30T05:06:22.308Z,100.00
2023-04-30T05:08:50.494Z,100.00
2023-04-30T05:11:20.143Z,100.00
2023-04-30T05:16:17.436Z,100.00
2023-04-30T05:18:45.770Z,100.00
2023-04-30T05:21:13.980Z,100.00
2023-04-30T05:23:42.298Z,100.00
2023-04-30T05:26:10.521Z,100.00
2023-04-30T05:28:40.589Z,100.00
2023-04-30T05:31:08.870Z,100.00
2023-04-30T05:33:38.036Z,100.00
2023-04-30T05:36:06.931Z,100.00
2023-04-30T05:38:35.280Z,100.00
2023-04-30T05:41:03.689Z,100.00
2023-04-30T05:43:31.898Z,100.00
2023-04-30T05:46:01.561Z,100.00
2023-04-30T05:48:29.754Z,100.00
2023-04-30T05:50:57.994Z,100.00
2023-04-30T05:53:26.311Z,100.00
2023-04-30T05:55:54.577Z,100.00
2023-04-30T05:58:22.759Z,100.00
2023-04-30T06:00:52.121Z,100.00
2023-04-30T06:03:22.120Z,100.00
2023-04-30T06:05:50.296Z,100.00
2023-04-30T06:08:18.653Z,100.00
2023-04-30T06:10:46.972Z,100.00
2023-04-30T06:13:15.617Z,100.00
2023-04-30T06:15:43.889Z,100.00
2023-04-30T06:18:14.474Z,100.00
2023-04-30T06:20:44.106Z,100.00
2023-04-30T06:23:12.305Z,100.00
2023-04-30T06:25:40.846Z,100.00
2023-04-30T06:28:10.146Z,100.00
2023-04-30T06:30:38.651Z,100.00
2023-04-30T06:33:06.894Z,100.00
2023-04-30T06:35:35.591Z,100.00
2023-04-30T06:38:05.389Z,100.00
2023-04-30T06:40:33.722Z,100.00
2023-04-30T06:43:01.898Z,100.00
2023-04-30T06:45:30.150Z,100.00
2023-04-30T06:47:59.699Z,100.00
2023-04-30T06:50:27.940Z,100.00
2023-04-30T06:52:56.166Z,100.00
2023-04-30T06:55:26.587Z,100.00
2023-04-30T06:57:55.030Z,100.00
2023-04-30T07:00:23.334Z,100.00
2023-04-30T07:02:52.238Z,100.00
2023-04-30T07:05:20.674Z,100.00
2023-04-30T07:07:49.371Z,100.00
2023-04-30T07:10:18.168Z,100.00
2023-04-30T07:12:47.802Z,100.00
2023-04-30T07:15:16.168Z,100.00
2023-04-30T07:17:44.459Z,100.00
2023-04-30T07:20:14.866Z,100.00
2023-04-30T07:22:44.650Z,100.00
2023-04-30T07:25:12.974Z,100.00
2023-04-30T07:27:41.469Z,100.00
2023-04-30T07:30:11.472Z,100.00
2023-04-30T07:32:41.328Z,100.00
2023-04-30T07:35:10.318Z,100.00
2023-04-30T07:37:40.474Z,100.00
2023-04-30T07:40:15.206Z,100.00
2023-04-30T07:42:46.349Z,100.00
2023-04-30T07:45:16.006Z,100.00
2023-04-30T07:47:44.641Z,100.00
2023-04-30T07:50:15.067Z,100.00
2023-04-30T07:58:02.569Z,100.00
2023-04-30T08:03:07.581Z,100.00
2023-04-30T08:05:35.897Z,100.00
2023-04-30T08:08:04.117Z,100.00
2023-04-30T08:10:32.643Z,100.00
2023-04-30T08:13:00.939Z,100.00
2023-04-30T08:15:29.552Z,100.00
2023-04-30T08:17:58.849Z,100.00
2023-04-30T08:20:28.628Z,100.00
2023-04-30T08:22:56.851Z,100.00
2023-04-30T08:25:25.169Z,100.00
2023-04-30T08:27:53.378Z,100.00
2023-04-30T08:30:21.637Z,100.00
2023-04-30T08:32:51.106Z,100.00
2023-04-30T08:35:19.696Z,100.00
2023-04-30T08:37:49.502Z,100.00
2023-04-30T08:40:17.871Z,100.00
2023-04-30T08:42:51.646Z,100.00
2023-04-30T08:45:20.655Z,100.00
2023-04-30T08:47:50.761Z,100.00
2023-04-30T08:50:19.528Z,100.00
2023-04-30T08:52:50.060Z,100.00
2023-04-30T08:55:18.308Z,100.00
2023-04-30T08:57:46.676Z,100.00
2023-04-30T09:00:15.771Z,100.00
2023-04-30T09:02:44.926Z,100.00
2023-04-30T09:05:14.347Z,100.00
2023-04-30T09:07:51.975Z,100.00
2023-04-30T09:10:34.112Z,100.00
2023-04-30T09:13:03.887Z,100.00
2023-04-30T09:15:33.160Z,100.00
2023-04-30T09:18:10.181Z,100.00
2023-04-30T09:20:38.772Z,100.00
2023-04-30T09:23:08.867Z,100.00
2023-04-30T09:25:42.693Z,100.00
2023-04-30T09:28:12.049Z,100.00
2023-04-30T09:30:40.961Z,100.00
2023-04-30T09:33:11.994Z,100.00
2023-04-30T09:35:42.186Z,100.00
2023-04-30T09:38:27.399Z,100.00
2023-04-30T09:40:59.441Z,100.00
2023-04-30T09:43:27.928Z,100.00
2023-04-30T09:45:56.105Z,100.00
2023-04-30T09:48:25.728Z,100.00
2023-04-30T09:50:54.132Z,100.00
2023-04-30T09:53:23.889Z,100.00
2023-04-30T09:55:53.351Z,100.00
2023-04-30T09:58:24.554Z,100.00
2023-04-30T10:00:55.230Z,100.00
2023-04-30T10:03:25.163Z,100.00
2023-04-30T10:05:54.281Z,100.00
2023-04-30T10:08:28.538Z,100.00
2023-04-30T10:11:00.619Z,100.00
2023-04-30T10:13:33.599Z,100.00
2023-04-30T10:16:08.938Z,100.00
2023-04-30T10:18:40.995Z,100.00
2023-04-30T10:21:14.339Z,100.00
2023-04-30T10:23:43.916Z,100.00
2023-04-30T10:26:12.539Z,100.00
2023-04-30T10:28:43.395Z,100.00
2023-04-30T10:31:12.434Z,100.00
2023-04-30T10:33:50.044Z,100.00
2023-04-30T10:36:27.271Z,100.00
2023-04-30T10:38:56.519Z,100.00
2023-04-30T10:41:25.686Z,100.00
2023-04-30T10:43:59.486Z,100.00
2023-04-30T10:46:30.232Z,100.00
2023-04-30T10:49:00.320Z,100.00
2023-04-30T10:51:46.649Z,100.00
2023-04-30T10:54:18.909Z,100.00
2023-04-30T10:56:48.733Z,100.00
2023-04-30T10:59:18.363Z,71.03
2023-04-30T11:02:02.805Z,72.51
2023-04-30T11:04:31.474Z,71.15
2023-04-30T11:07:17.240Z,68.75
2023-04-30T11:09:46.494Z,66.05
2023-04-30T11:12:16.490Z,63.76
2023-04-30T11:14:47.260Z,67.45
2023-04-30T11:17:23.793Z,62.55
2023-04-30T11:19:53.655Z,64.75
2023-04-30T11:22:24.657Z,62.87
2023-04-30T11:25:04.026Z,61.93
2023-04-30T11:27:33.520Z,61.95
2023-04-30T11:30:04.975Z,62.11
2023-04-30T11:32:37.491Z,62.96
2023-04-30T11:35:07.459Z,61.97
2023-04-30T11:37:37.768Z,63.35
2023-04-30T11:40:08.850Z,64.81
2023-04-30T11:42:37.150Z,63.81
2023-04-30T11:45:09.096Z,63.83
2023-04-30T11:47:44.283Z,63.94
2023-04-30T11:50:14.335Z,62.29
2023-04-30T11:52:43.596Z,61.17
2023-04-30T11:55:16.703Z,62.47
2023-04-30T11:57:46.697Z,62.53
2023-04-30T12:00:18.122Z,61.08
2023-04-30T12:02:48.206Z,61.23
2023-04-30T12:05:18.163Z,59.04
2023-04-30T12:07:48.353Z,59.20
2023-04-30T12:10:16.852Z,60.62
2023-04-30T12:12:46.230Z,59.79
2023-04-30T12:15:23.416Z,56.90
2023-04-30T12:17:52.133Z,56.79
2023-04-30T12:22:54.366Z,53.99
2023-04-30T12:28:04.475Z,55.10
2023-04-30T12:30:34.345Z,57.96
2023-04-30T12:33:03.868Z,58.94
2023-04-30T12:35:32.931Z,61.72
2023-04-30T12:46:29.795Z,58.92
2023-04-30T13:02:25.588Z,53.46
2023-04-30T13:04:54.513Z,52.97
2023-04-30T13:07:23.263Z,50.72
2023-04-30T13:09:51.508Z,51.94
2023-04-30T13:12:20.249Z,51.28
2023-04-30T13:14:48.459Z,52.13
2023-04-30T13:19:59.525Z,52.44
2023-04-30T13:39:58.069Z,50.41
2023-04-30T14:01:29.251Z,48.62
2023-04-30T14:03:57.487Z,48.12
2023-04-30T14:06:25.748Z,44.65
2023-04-30T14:08:54.063Z,45.27
2023-04-30T14:11:23.502Z,45.35
2023-04-30T14:13:51.667Z,42.95
2023-04-30T14:16:21.097Z,43.13
2023-04-30T14:18:50.825Z,42.07
2023-04-30T14:21:19.155Z,41.84
2023-04-30T14:23:47.711Z,40.16
2023-04-30T14:26:16.517Z,40.06
2023-04-30T14:28:44.751Z,38.43
2023-04-30T14:31:13.027Z,37.49
2023-04-30T14:33:41.331Z,35.78
2023-04-30T14:36:11.261Z,34.86
2023-04-30T14:38:39.470Z,36.22
2023-04-30T14:41:07.723Z,34.12
2023-04-30T14:43:35.920Z,33.25
2023-04-30T14:46:04.248Z,33.25
2023-04-30T14:48:32.876Z,33.24
2023-04-30T14:51:01.403Z,32.75
2023-04-30T14:53:31.141Z,34.07
2023-04-30T14:55:59.359Z,33.68
2023-04-30T14:58:27.735Z,32.18
2023-04-30T15:00:56.210Z,32.64
2023-04-30T15:03:24.628Z,33.55
2023-04-30T15:05:52.966Z,33.72
2023-04-30T15:08:21.144Z,33.63
2023-04-30T15:10:50.851Z,34.65
2023-04-30T15:13:19.136Z,35.67
2023-04-30T15:15:49.854Z,35.45
2023-04-30T15:18:18.200Z,36.25
2023-04-30T15:20:47.250Z,32.76
2023-04-30T15:23:15.705Z,32.01
2023-04-30T15:25:44.332Z,32.60
2023-04-30T15:28:14.079Z,29.71
2023-04-30T15:30:43.091Z,30.87
2023-04-30T15:33:12.618Z,32.41
2023-04-30T15:35:41.769Z,34.71
2023-04-30T15:38:10.084Z,35.28
2023-04-30T15:40:38.605Z,35.30
2023-04-30T15:43:07.938Z,35.51
2023-04-30T15:45:37.577Z,36.26
2023-04-30T15:48:06.344Z,34.34
2023-04-30T15:50:34.650Z,31.27
2023-04-30T15:53:03.039Z,30.38
2023-04-30T15:55:31.379Z,29.50
2023-04-30T15:57:59.642Z,28.83
2023-04-30T16:00:28.880Z,30.50
2023-04-30T16:02:58.641Z,29.65
2023-04-30T16:05:27.069Z,28.60
2023-04-30T16:07:55.730Z,29.66
2023-04-30T16:10:24.014Z,32.13
2023-04-30T16:12:52.551Z,34.09
2023-04-30T16:15:20.785Z,35.45
2023-04-30T16:17:49.095Z,36.41
2023-04-30T16:20:19.227Z,37.34
2023-04-30T16:22:48.298Z,38.32
2023-04-30T16:25:16.702Z,39.32
2023-04-30T16:27:45.477Z,39.95
2023-04-30T16:30:14.136Z,40.79
2023-04-30T16:32:42.525Z,41.08
2023-04-30T16:35:11.368Z,41.46
2023-04-30T16:37:40.999Z,41.49
2023-04-30T16:40:10.060Z,41.61
2023-04-30T16:42:38.266Z,41.82
2023-04-30T16:45:07.357Z,41.63
2023-04-30T16:47:35.595Z,42.26
2023-04-30T16:50:03.926Z,42.15
2023-04-30T16:52:33.273Z,42.23
2023-04-30T16:55:03.507Z,42.73
2023-04-30T16:57:31.956Z,43.29
2023-04-30T17:00:00.258Z,43.54
2023-04-30T17:02:28.548Z,43.00
2023-04-30T17:04:57.759Z,42.67
2023-04-30T17:07:25.886Z,44.13
2023-04-30T17:09:54.659Z,44.05
2023-04-30T17:12:24.895Z,44.17
2023-04-30T17:14:53.348Z,44.84
2023-04-30T17:17:21.474Z,44.60
2023-04-30T17:19:49.572Z,45.28
2023-04-30T17:22:20.224Z,46.17
2023-04-30T17:24:48.597Z,46.08
2023-04-30T17:27:16.973Z,46.48
2023-04-30T17:29:46.615Z,47.72
2023-04-30T17:32:17.667Z,46.87
2023-04-30T17:34:45.947Z,47.66
2023-04-30T17:37:14.102Z,47.53
2023-04-30T17:39:42.255Z,47.08
2023-04-30T17:42:10.528Z,47.93
2023-04-30T17:44:38.800Z,48.26
2023-04-30T17:47:08.394Z,47.64
2023-04-30T17:49:36.738Z,46.91
2023-04-30T17:52:06.410Z,47.50
2023-04-30T17:54:34.921Z,47.80
2023-04-30T17:57:03.499Z,47.85
2023-04-30T17:59:32.127Z,47.37
2023-04-30T18:02:00.445Z,48.40
2023-04-30T18:04:30.352Z,47.94
2023-04-30T18:06:58.573Z,48.16
2023-04-30T18:09:26.991Z,48.81
2023-04-30T18:11:56.359Z,48.64
2023-04-30T18:14:26.239Z,48.52
2023-04-30T18:16:54.847Z,48.76
2023-04-30T18:19:23.166Z,49.18
2023-04-30T18:21:53.271Z,49.73
2023-04-30T18:27:12.334Z,49.15
2023-04-30T18:29:41.993Z,49.67
2023-04-30T18:32:10.384Z,49.06
2023-04-30T18:34:38.946Z,48.77
2023-04-30T18:37:08.618Z,49.00
2023-04-30T18:39:36.893Z,49.92
2023-04-30T18:42:05.233Z,49.96
2023-04-30T18:44:33.577Z,50.27
2023-04-30T18:47:01.863Z,50.41
2023-04-30T18:49:30.173Z,50.76
2023-04-30T18:51:59.632Z,50.53
2023-04-30T18:54:29.402Z,52.09
2023-04-30T18:56:57.666Z,55.60
2023-04-30T18:59:27.695Z,58.10
2023-04-30T19:01:56.077Z,59.17
2023-04-30T19:04:24.424Z,58.32
2023-04-30T19:06:54.595Z,59.40
2023-04-30T19:09:22.964Z,57.46
2023-04-30T19:11:53.286Z,58.30
2023-04-30T19:14:21.582Z,57.04
2023-04-30T19:16:49.963Z,59.75
2023-04-30T19:19:18.262Z,59.22
2023-04-30T19:21:46.675Z,63.83
2023-04-30T19:24:15.087Z,65.51
2023-04-30T19:26:43.682Z,64.68
2023-04-30T19:29:13.379Z,60.07
2023-04-30T19:31:41.789Z,63.28
2023-04-30T19:34:10.274Z,66.04
2023-04-30T19:36:38.595Z,63.42
2023-04-30T19:39:10.297Z,66.88
2023-04-30T19:41:38.576Z,67.98
2023-04-30T19:44:08.022Z,68.40
2023-04-30T19:46:37.841Z,68.96
2023-04-30T19:49:08.501Z,67.68
2023-04-30T19:51:36.859Z,66.89
2023-04-30T19:54:05.144Z,67.16
2023-04-30T19:56:33.429Z,68.26
2023-04-30T19:59:01.658Z,68.13
2023-04-30T20:01:29.995Z,68.42
2023-04-30T20:03:59.942Z,65.50
2023-04-30T20:06:28.605Z,68.43
2023-04-30T20:08:59.869Z,70.35
2023-04-30T20:11:28.243Z,70.47
2023-04-30T20:13:56.996Z,70.45
2023-04-30T20:16:25.656Z,70.79
2023-04-30T20:18:53.905Z,70.91
2023-04-30T20:21:25.073Z,70.32
2023-04-30T20:23:53.270Z,70.53
2023-04-30T20:26:21.913Z,71.47
2023-04-30T20:28:50.026Z,71.42
2023-04-30T20:31:18.432Z,71.57
2023-04-30T20:33:47.174Z,73.01
2023-04-30T20:36:15.935Z,72.88
2023-04-30T20:38:45.650Z,73.65
2023-04-30T20:41:13.919Z,73.86
2023-04-30T20:43:42.659Z,74.13
2023-04-30T20:46:13.955Z,73.12
2023-04-30T20:48:42.093Z,72.24
2023-04-30T20:51:10.917Z,71.23
2023-04-30T20:53:39.215Z,70.86
2023-04-30T20:56:08.957Z,71.88
2023-04-30T20:58:37.209Z,72.82
2023-04-30T21:01:05.494Z,73.59
2023-04-30T21:03:33.824Z,71.88
2023-04-30T21:06:02.286Z,71.20
2023-04-30T21:08:30.672Z,71.94
2023-04-30T21:10:58.983Z,72.19
2023-04-30T21:13:28.791Z,73.24
2023-04-30T21:15:57.840Z,73.08
2023-04-30T21:18:27.749Z,73.99
2023-04-30T21:21:02.727Z,74.07
2023-04-30T21:23:31.141Z,75.52
2023-04-30T21:25:59.363Z,75.29
2023-04-30T21:28:29.054Z,75.85
2023-04-30T21:30:57.313Z,76.62
2023-04-30T21:33:25.519Z,77.09
2023-04-30T21:35:53.680Z,75.32
2023-04-30T21:38:21.797Z,76.63
2023-04-30T21:40:50.117Z,77.61
2023-04-30T21:43:18.808Z,77.72
2023-04-30T21:45:48.396Z,77.76
2023-04-30T21:48:17.373Z,77.29
2023-04-30T21:50:46.856Z,76.50
2023-04-30T21:53:16.119Z,76.05
2023-04-30T21:55:44.345Z,75.51
2023-04-30T21:58:13.357Z,76.05
2023-04-30T22:00:41.653Z,77.51
2023-04-30T22:03:11.573Z,78.12
2023-04-30T22:05:40.011Z,78.39
2023-04-30T22:08:08.157Z,78.62
2023-04-30T22:10:36.511Z,78.85
2023-04-30T22:13:04.696Z,77.70
2023-04-30T22:15:47.071Z,77.65
2023-04-30T22:18:18.009Z,78.50
2023-04-30T22:20:46.259Z,79.51
2023-04-30T22:23:14.366Z,79.90
2023-04-30T22:25:42.950Z,81.28
2023-04-30T22:28:11.671Z,81.87
2023-04-30T22:30:40.261Z,81.14
2023-04-30T22:33:08.551Z,80.81
2023-04-30T22:35:39.306Z,80.33
2023-04-30T22:38:08.305Z,80.49
2023-04-30T22:40:47.244Z,81.26
2023-04-30T22:43:16.767Z,80.54
2023-04-30T22:45:47.886Z,79.59
2023-04-30T22:48:19.613Z,82.11
2023-04-30T22:50:50.801Z,82.43
2023-04-30T22:53:19.760Z,82.63
2023-04-30T22:55:49.186Z,82.29
2023-04-30T22:58:18.280Z,82.07
2023-04-30T23:00:51.449Z,82.09
2023-04-30T23:03:20.231Z,82.53
2023-04-30T23:05:55.689Z,83.34
2023-04-30T23:08:26.652Z,83.56
2023-04-30T23:10:56.056Z,83.60
2023-04-30T23:13:27.620Z,83.42
2023-04-30T23:15:58.928Z,83.26
2023-04-30T23:18:27.227Z,83.33
2023-04-30T23:20:59.051Z,83.48
2023-04-30T23:23:27.977Z,84.06
2023-04-30T23:25:56.719Z,85.06
2023-04-30T23:28:25.591Z,85.70
2023-04-30T23:30:54.616Z,86.18
2023-04-30T23:33:23.442Z,87.10
2023-04-30T23:35:53.549Z,86.15
2023-04-30T23:38:23.532Z,86.38
2023-04-30T23:40:51.713Z,86.96
2023-04-30T23:43:19.949Z,87.75
2023-04-30T23:45:48.141Z,87.07
2023-04-30T23:48:16.352Z,86.31
2023-04-30T23:50:44.586Z,87.72
2023-04-30T23:53:12.782Z,88.21
2023-04-30T23:55:43.768Z,88.17
2023-04-30T23:58:11.901Z,89.00
